Time;durP1;ratioP1;P1;durP2;ratioP2;P2;SDS_P1;SDS_P2;PMS_P1;PMS_P2;Temp;Humidity;BMP_temperature;BMP_pressure;BME280_temperature;BME280_humidity;BME280_pressure;Samples;Min_cycle;Max_cycle;Signal;HPM_P1;HPM_P2
2021/09/13 00:01:04;;;;;;;6.13;2.30;;;17.80;94.30;;;;;;5001008;28;20251;-73
2021/09/13 00:03:30;;;;;;;10.75;1.80;;;17.80;94.40;;;;;;4982976;28;20182;-70
2021/09/13 00:05:56;;;;;;;9.80;2.03;;;17.80;94.50;;;;;;4970527;28;20667;-71
2021/09/13 00:08:21;;;;;;;6.57;1.75;;;17.80;94.60;;;;;;4969565;28;20190;-72
2021/09/13 00:10:47;;;;;;;2.80;1.60;;;17.80;94.70;;;;;;4970464;28;20317;-70
2021/09/13 00:13:14;;;;;;;3.13;1.55;;;17.80;94.70;;;;;;4979092;28;20915;-70
2021/09/13 00:15:40;;;;;;;6.10;1.85;;;17.80;94.80;;;;;;5007393;28;20183;-72
2021/09/13 00:18:07;;;;;;;6.32;1.70;;;17.80;94.80;;;;;;4971411;28;20643;-73
2021/09/13 00:20:33;;;;;;;10.57;1.83;;;17.80;94.90;;;;;;4972736;28;20196;-72
2021/09/13 00:22:59;;;;;;;8.40;2.05;;;17.80;95.00;;;;;;4972802;28;20196;-70
2021/09/13 00:25:24;;;;;;;6.55;2.00;;;17.80;95.00;;;;;;4986889;28;20194;-70
2021/09/13 00:27:53;;;;;;;5.00;1.67;;;17.80;95.10;;;;;;5007227;28;20192;-71
2021/09/13 00:30:20;;;;;;;7.75;2.10;;;17.80;95.10;;;;;;5005479;28;20764;-73
2021/09/13 00:32:46;;;;;;;6.32;1.92;;;17.80;95.20;;;;;;4979127;28;20187;-74
2021/09/13 00:35:13;;;;;;;6.05;2.35;;;17.80;95.20;;;;;;4980020;28;20178;-72
2021/09/13 00:37:40;;;;;;;4.85;2.33;;;17.80;95.30;;;;;;4989367;28;20189;-71
2021/09/13 00:40:06;;;;;;;7.95;2.10;;;17.80;95.30;;;;;;4976891;28;20186;-72
2021/09/13 00:42:35;;;;;;;5.00;2.00;;;17.80;95.40;;;;;;4997087;28;20805;-74
2021/09/13 00:45:02;;;;;;;5.90;2.35;;;17.80;95.40;;;;;;4952253;28;20262;-73
2021/09/13 00:47:28;;;;;;;9.25;2.90;;;17.90;95.50;;;;;;4998210;28;20196;-74
2021/09/13 00:49:54;;;;;;;12.52;2.40;;;17.80;95.40;;;;;;4963195;28;20228;-73
2021/09/13 00:52:21;;;;;;;6.22;2.75;;;17.80;95.50;;;;;;4969433;28;20190;-72
2021/09/13 00:54:47;;;;;;;8.18;2.60;;;17.80;95.60;;;;;;4970737;28;20256;-73
2021/09/13 00:57:13;;;;;;;8.48;2.38;;;17.80;95.60;;;;;;4980170;28;20183;-73
2021/09/13 00:59:40;;;;;;;6.32;2.50;;;17.80;95.70;;;;;;4970498;28;20186;-72
2021/09/13 01:02:06;;;;;;;7.47;2.20;;;17.80;95.80;;;;;;4968790;28;20300;-72
2021/09/13 01:04:32;;;;;;;5.32;2.13;;;17.80;95.90;;;;;;4979659;28;20652;-73
2021/09/13 01:06:58;;;;;;;7.10;2.40;;;17.80;96.00;;;;;;5005648;28;20659;-73
2021/09/13 01:09:24;;;;;;;9.18;2.40;;;17.80;96.10;;;;;;4981420;28;20248;-72
2021/09/13 01:11:50;;;;;;;8.23;2.70;;;17.80;96.10;;;;;;5006601;28;20514;-73
2021/09/13 01:14:17;;;;;;;7.15;2.58;;;17.80;96.10;;;;;;4974211;28;20212;-73
2021/09/13 01:16:43;;;;;;;9.63;2.55;;;17.80;96.60;;;;;;4967306;28;20192;-73
2021/09/13 01:19:09;;;;;;;12.57;2.70;;;17.80;96.40;;;;;;4967473;28;20181;-72
2021/09/13 01:21:39;;;;;;;9.13;2.67;;;17.80;96.60;;;;;;4974072;28;20663;-71
2021/09/13 01:24:06;;;;;;;10.07;2.55;;;17.80;96.70;;;;;;4973653;28;20299;-71
2021/09/13 01:26:33;;;;;;;11.70;2.78;;;17.80;96.90;;;;;;4970015;28;20658;-72
2021/09/13 01:28:59;;;;;;;10.30;3.20;;;17.80;97.20;;;;;;4973022;28;20276;-73
2021/09/13 01:31:31;;;;;;;9.40;2.72;;;17.80;97.40;;;;;;4969457;28;20209;-74
2021/09/13 01:33:57;;;;;;;6.53;2.53;;;17.80;97.70;;;;;;4968578;28;20669;-72
2021/09/13 01:36:28;;;;;;;6.30;2.58;;;17.80;98.00;;;;;;4970169;28;20227;-71
2021/09/13 01:38:54;;;;;;;7.32;3.15;;;17.80;98.30;;;;;;4980177;28;20182;-69
2021/09/13 01:41:20;;;;;;;10.77;2.90;;;17.90;98.50;;;;;;4973355;28;20194;-73
2021/09/13 01:43:48;;;;;;;8.00;3.15;;;17.90;98.70;;;;;;4968780;28;20589;-73
2021/09/13 01:46:14;;;;;;;6.55;2.47;;;17.90;98.90;;;;;;4968055;28;20196;-71
2021/09/13 01:48:47;;;;;;;4.07;2.58;;;17.90;99.00;;;;;;4959909;28;20190;-72
2021/09/13 01:51:13;;;;;;;11.10;2.88;;;17.90;99.20;;;;;;4951430;28;20254;-72
2021/09/13 01:53:39;;;;;;;7.85;2.40;;;17.90;99.30;;;;;;4962370;28;20186;-71
2021/09/13 01:56:05;;;;;;;7.97;2.47;;;17.90;99.40;;;;;;4974725;28;20207;-70
2021/09/13 01:58:32;;;;;;;9.65;2.17;;;17.90;99.60;;;;;;4974666;28;20216;-72
2021/09/13 02:00:58;;;;;;;8.05;2.22;;;17.90;99.70;;;;;;4969783;28;20224;-75
2021/09/13 02:03:24;;;;;;;9.00;2.00;;;17.90;99.90;;;;;;4980598;28;20184;-70
2021/09/13 02:05:53;;;;;;;6.15;1.95;;;17.90;99.90;;;;;;4969101;28;20406;-73
2021/09/13 02:08:22;;;;;;;5.97;1.65;;;17.90;99.90;;;;;;4967898;28;20198;-74
2021/09/13 02:10:48;;;;;;;3.97;1.50;;;17.90;99.90;;;;;;4975129;28;20225;-73
2021/09/13 02:13:16;;;;;;;6.10;1.85;;;17.90;99.90;;;;;;5003339;28;20201;-73
2021/09/13 02:15:42;;;;;;;4.75;1.23;;;17.90;99.90;;;;;;5005325;28;20263;-74
2021/09/13 02:18:10;;;;;;;7.43;1.38;;;17.90;99.90;;;;;;4968543;28;20589;-70
2021/09/13 02:20:44;;;;;;;4.65;1.10;;;17.90;99.90;;;;;;4955977;28;20188;-72
2021/09/13 02:23:10;;;;;;;7.97;1.38;;;17.90;99.90;;;;;;4969852;28;20244;-74
2021/09/13 02:25:35;;;;;;;5.05;1.35;;;17.90;99.90;;;;;;4971139;28;20193;-73
2021/09/13 02:28:01;;;;;;;6.55;1.30;;;17.90;99.90;;;;;;4976214;28;20818;-73
2021/09/13 02:30:27;;;;;;;4.53;1.38;;;17.90;99.90;;;;;;4977501;28;20220;-74
2021/09/13 02:32:53;;;;;;;2.67;1.10;;;17.90;99.90;;;;;;4968932;28;20188;-73
2021/09/13 02:35:19;;;;;;;4.70;1.27;;;17.80;99.90;;;;;;4973211;28;20546;-72
2021/09/13 02:37:45;;;;;;;2.08;1.10;;;17.80;99.90;;;;;;4969203;28;20194;-71
2021/09/13 02:40:11;;;;;;;5.40;1.35;;;17.70;99.90;;;;;;4962635;28;20189;-72
2021/09/13 02:42:37;;;;;;;10.02;1.45;;;17.70;99.90;;;;;;4965190;28;20525;-70
2021/09/13 02:45:05;;;;;;;7.32;1.42;;;17.70;99.90;;;;;;4972847;28;20188;-74
2021/09/13 02:47:31;;;;;;;4.10;1.25;;;17.70;99.90;;;;;;4990967;28;20230;-74
2021/09/13 02:49:57;;;;;;;5.28;1.50;;;17.70;99.90;;;;;;4967292;28;20197;-73
2021/09/13 02:52:25;;;;;;;5.25;1.70;;;17.60;99.90;;;;;;4980431;28;20268;-73
2021/09/13 02:54:51;;;;;;;3.55;1.65;;;17.60;99.90;;;;;;4975778;28;20332;-74
2021/09/13 02:57:17;;;;;;;3.22;1.42;;;17.60;99.90;;;;;;4973859;28;20189;-75
2021/09/13 02:59:47;;;;;;;5.32;1.50;;;17.60;99.90;;;;;;4967690;28;20651;-74
2021/09/13 03:02:13;;;;;;;4.65;1.58;;;17.50;99.90;;;;;;4974353;28;20209;-73
2021/09/13 03:04:38;;;;;;;2.85;1.30;;;17.50;99.90;;;;;;4972930;28;20189;-74
2021/09/13 03:07:04;;;;;;;2.70;1.58;;;17.50;99.90;;;;;;4966634;28;20185;-74
2021/09/13 03:09:30;;;;;;;4.53;1.40;;;17.50;99.90;;;;;;4967093;28;20181;-76
2021/09/13 03:11:55;;;;;;;2.78;1.70;;;17.50;99.90;;;;;;4968389;28;20682;-73
2021/09/13 03:14:21;;;;;;;3.58;1.60;;;17.50;99.90;;;;;;4967530;28;20248;-74
2021/09/13 03:16:47;;;;;;;4.50;1.60;;;17.50;99.90;;;;;;4975376;28;20189;-73
2021/09/13 03:19:13;;;;;;;2.25;1.42;;;17.40;99.90;;;;;;4972326;28;20189;-72
2021/09/13 03:21:39;;;;;;;5.40;1.40;;;17.40;99.90;;;;;;4968733;28;20192;-74
2021/09/13 03:24:08;;;;;;;5.78;1.42;;;17.40;99.90;;;;;;4983505;28;20196;-75
2021/09/13 03:26:35;;;;;;;4.75;1.38;;;17.40;99.90;;;;;;4974669;28;20218;-74
2021/09/13 03:29:01;;;;;;;7.38;1.50;;;17.40;99.90;;;;;;4965926;28;20182;-74
2021/09/13 03:31:26;;;;;;;4.20;1.40;;;17.50;99.90;;;;;;4965898;28;20220;-73
2021/09/13 03:33:52;;;;;;;5.50;2.13;;;17.40;99.90;;;;;;4970237;28;20537;-75
2021/09/13 03:36:17;;;;;;;4.13;1.60;;;17.40;99.90;;;;;;4988259;28;20189;-75
2021/09/13 03:38:43;;;;;;;6.88;1.80;;;17.50;99.90;;;;;;4960939;28;20184;-72
2021/09/13 03:41:15;;;;;;;4.75;1.50;;;17.50;99.90;;;;;;4969763;28;20285;-74
2021/09/13 03:43:41;;;;;;;4.38;1.73;;;17.40;99.90;;;;;;4975804;28;20714;-73
2021/09/13 03:46:07;;;;;;;3.70;1.48;;;17.40;99.90;;;;;;4975959;28;20192;-73
2021/09/13 03:48:43;;;;;;;2.97;1.48;;;17.40;99.90;;;;;;4968306;28;20361;-72
2021/09/13 03:51:08;;;;;;;4.47;1.38;;;17.40;99.90;;;;;;4972454;28;20757;-74
2021/09/13 03:53:34;;;;;;;3.20;1.30;;;17.40;99.90;;;;;;4970178;28;20189;-72
2021/09/13 03:56:03;;;;;;;2.17;1.00;;;17.40;99.90;;;;;;4963779;28;20610;-72
2021/09/13 03:58:31;;;;;;;3.47;1.17;;;17.40;99.90;;;;;;4975766;28;20199;-73
2021/09/13 04:00:57;;;;;;;3.78;1.75;;;17.40;99.90;;;;;;4972599;28;20182;-73
2021/09/13 04:03:31;;;;;;;3.25;1.20;;;17.40;99.90;;;;;;4975037;28;20654;-71
2021/09/13 04:05:58;;;;;;;4.18;1.20;;;17.40;99.90;;;;;;4972094;28;20313;-72
2021/09/13 04:11:54;;;;;;;2.83;1.20;;;17.30;99.90;;;;;;4950093;28;20233;-71
2021/09/13 04:14:38;;;;;;;3.70;1.20;;;17.20;99.90;;;;;;4976480;28;20216;-69
2021/09/13 04:17:24;;;;;;;3.17;1.08;;;17.20;99.90;;;;;;4987836;28;20323;-72
2021/09/13 04:20:15;;;;;;;4.85;1.33;;;17.20;99.90;;;;;;5001542;28;21005;-72
2021/09/13 04:22:59;;;;;;;4.30;1.33;;;17.10;99.90;;;;;;4966623;28;20194;-73
2021/09/13 04:25:50;;;;;;;2.90;1.10;;;17.10;99.90;;;;;;4968433;28;20786;-73
2021/09/13 04:28:29;;;;;;;4.78;1.20;;;17.10;99.90;;;;;;4970710;28;20941;-73
2021/09/13 04:31:09;;;;;;;3.15;1.30;;;17.10;99.90;;;;;;4976409;28;21065;-72
2021/09/13 04:33:55;;;;;;;5.60;1.50;;;17.00;99.90;;;;;;4984084;28;20224;-71
2021/09/13 04:36:54;;;;;;;2.95;1.70;;;17.00;99.90;;;;;;4971634;28;20178;-75
2021/09/13 04:39:38;;;;;;;4.15;2.10;;;17.10;99.90;;;;;;4998071;28;20204;-73
2021/09/13 04:42:22;;;;;;;3.78;1.70;;;17.10;99.90;;;;;;4987963;28;20543;-73
2021/09/13 04:45:10;;;;;;;2.85;1.60;;;17.00;99.90;;;;;;4967095;28;20713;-73
2021/09/13 04:48:04;;;;;;;4.05;1.90;;;17.00;99.90;;;;;;4977327;28;20188;-72
2021/09/13 04:50:43;;;;;;;4.75;2.30;;;17.00;99.90;;;;;;4971306;28;20213;-72
2021/09/13 04:53:22;;;;;;;5.13;1.83;;;17.00;99.90;;;;;;4964876;28;20190;-72
2021/09/13 04:55:49;;;;;;;5.50;1.92;;;17.00;99.90;;;;;;4968590;28;20643;-74
2021/09/13 04:58:17;;;;;;;5.82;2.25;;;17.00;99.90;;;;;;4966686;28;20185;-73
2021/09/13 05:00:44;;;;;;;4.03;1.88;;;17.00;99.90;;;;;;4979985;28;20658;-70
2021/09/13 05:03:09;;;;;;;5.32;2.30;;;17.00;99.90;;;;;;4977188;28;20196;-70
2021/09/13 05:05:35;;;;;;;4.40;2.28;;;17.10;99.90;;;;;;4965770;28;20334;-72
2021/09/13 05:08:01;;;;;;;3.88;2.03;;;17.00;99.90;;;;;;4968141;28;20190;-69
2021/09/13 05:10:27;;;;;;;7.18;2.33;;;17.10;99.90;;;;;;4965595;28;20237;-69
2021/09/13 05:12:53;;;;;;;3.97;1.80;;;17.10;99.90;;;;;;4965329;28;20186;-69
2021/09/13 05:15:20;;;;;;;2.97;1.90;;;17.00;99.90;;;;;;4967049;28;20185;-70
2021/09/13 05:17:46;;;;;;;5.43;2.00;;;17.10;99.90;;;;;;4965263;28;20568;-70
2021/09/13 05:20:13;;;;;;;4.95;2.30;;;17.00;99.90;;;;;;4970534;28;20522;-68
2021/09/13 05:22:40;;;;;;;7.22;2.60;;;17.00;99.90;;;;;;4971003;28;20188;-70
2021/09/13 05:25:08;;;;;;;6.47;2.88;;;17.00;99.90;;;;;;4983512;28;21067;-68
2021/09/13 05:27:35;;;;;;;5.32;2.63;;;16.90;99.90;;;;;;4958013;28;20189;-68
2021/09/13 05:30:02;;;;;;;10.35;3.05;;;16.90;99.90;;;;;;4969191;28;20232;-68
2021/09/13 05:32:28;;;;;;;4.30;2.45;;;16.90;99.90;;;;;;4964793;28;20256;-68
2021/09/13 05:34:53;;;;;;;5.50;2.20;;;16.90;99.90;;;;;;4967144;28;20182;-69
2021/09/13 05:37:21;;;;;;;4.93;2.03;;;16.80;99.90;;;;;;4969083;28;20185;-68
2021/09/13 05:39:47;;;;;;;6.15;2.00;;;16.80;99.90;;;;;;4959250;28;20235;-69
2021/09/13 05:42:20;;;;;;;4.53;1.90;;;16.80;99.90;;;;;;4971831;28;20235;-69
2021/09/13 05:44:47;;;;;;;5.70;2.10;;;16.80;99.90;;;;;;4966698;28;20221;-69
2021/09/13 05:47:12;;;;;;;6.65;2.00;;;16.80;99.90;;;;;;4966894;28;20240;-68
2021/09/13 05:49:38;;;;;;;7.57;2.63;;;16.80;99.90;;;;;;4964423;28;20189;-69
2021/09/13 05:52:09;;;;;;;5.72;2.20;;;16.80;99.90;;;;;;4976981;28;21031;-67
2021/09/13 05:54:40;;;;;;;8.13;2.35;;;16.80;99.90;;;;;;4963899;28;20185;-69
2021/09/13 05:57:06;;;;;;;4.43;2.30;;;16.80;99.90;;;;;;4979244;28;20188;-67
2021/09/13 05:59:32;;;;;;;6.20;2.03;;;16.90;99.90;;;;;;4964613;28;20186;-69
2021/09/13 06:02:02;;;;;;;8.95;2.05;;;16.90;99.90;;;;;;4962927;28;20182;-68
2021/09/13 06:04:32;;;;;;;7.50;1.80;;;16.90;99.90;;;;;;4967062;28;20946;-69
2021/09/13 06:06:59;;;;;;;7.07;2.10;;;16.90;99.90;;;;;;4971265;28;20189;-70
2021/09/13 06:09:26;;;;;;;11.27;5.50;;;16.90;99.90;;;;;;4964221;28;20607;-69
2021/09/13 06:11:51;;;;;;;15.50;3.45;;;17.00;99.90;;;;;;4968413;28;20212;-71
2021/09/13 06:14:17;;;;;;;6.50;2.13;;;17.00;99.90;;;;;;4965921;28;20185;-70
2021/09/13 06:16:44;;;;;;;6.82;2.63;;;17.10;99.90;;;;;;4966426;28;20197;-69
2021/09/13 06:19:10;;;;;;;8.77;2.67;;;17.10;99.90;;;;;;4965448;28;20209;-69
2021/09/13 06:21:37;;;;;;;11.43;2.58;;;17.20;99.90;;;;;;4971747;28;20260;-70
2021/09/13 06:24:05;;;;;;;10.05;2.88;;;17.20;99.90;;;;;;4964872;28;20197;-71
2021/09/13 06:26:34;;;;;;;5.30;2.75;;;17.20;99.90;;;;;;4982785;28;20283;-69
2021/09/13 06:29:01;;;;;;;11.18;3.13;;;17.30;99.90;;;;;;4973503;28;20204;-69
2021/09/13 06:31:27;;;;;;;9.43;2.90;;;17.40;99.90;;;;;;4980353;28;20205;-69
2021/09/13 06:33:54;;;;;;;5.55;2.53;;;17.40;99.90;;;;;;4980521;28;20247;-68
2021/09/13 06:36:20;;;;;;;4.32;2.30;;;17.50;99.90;;;;;;4975967;28;20547;-70
2021/09/13 06:38:48;;;;;;;6.47;2.35;;;17.50;99.90;;;;;;4974019;28;20181;-67
2021/09/13 06:41:14;;;;;;;10.05;2.63;;;17.60;99.90;;;;;;4973189;28;20263;-71
2021/09/13 06:43:43;;;;;;;6.30;2.35;;;17.60;99.90;;;;;;4987665;28;20184;-70
2021/09/13 06:46:14;;;;;;;11.35;2.63;;;17.70;99.90;;;;;;4967150;28;20193;-69
2021/09/13 06:48:43;;;;;;;6.95;2.17;;;17.70;99.90;;;;;;4994824;28;20199;-70
2021/09/13 06:51:11;;;;;;;9.90;2.80;;;17.80;99.90;;;;;;4967938;28;20304;-71
2021/09/13 06:53:36;;;;;;;9.77;3.25;;;17.80;99.90;;;;;;4969589;28;20190;-69
2021/09/13 06:56:04;;;;;;;9.73;3.88;;;17.90;99.90;;;;;;4972526;28;20186;-70
2021/09/13 06:58:30;;;;;;;7.30;2.78;;;17.90;99.90;;;;;;4962489;28;20225;-69
2021/09/13 07:00:57;;;;;;;16.35;2.72;;;17.90;99.90;;;;;;4967664;28;20201;-71
2021/09/13 07:03:23;;;;;;;12.68;2.50;;;18.00;99.90;;;;;;4969927;28;20276;-71
2021/09/13 07:05:50;;;;;;;6.15;2.40;;;18.00;99.90;;;;;;5000659;28;21004;-70
2021/09/13 07:08:16;;;;;;;10.57;2.95;;;18.00;99.90;;;;;;4969285;28;20190;-69
2021/09/13 07:10:42;;;;;;;7.95;2.30;;;18.10;99.90;;;;;;4965873;28;20248;-69
2021/09/13 07:13:08;;;;;;;8.38;2.08;;;18.10;99.90;;;;;;4976495;28;20182;-71
2021/09/13 07:15:34;;;;;;;10.77;2.00;;;18.20;99.80;;;;;;4971732;28;21000;-71
2021/09/13 07:18:00;;;;;;;5.53;2.10;;;18.20;99.70;;;;;;4973663;28;20217;-70
2021/09/13 07:20:26;;;;;;;7.45;2.75;;;18.30;99.60;;;;;;4977997;28;20227;-70
2021/09/13 07:22:52;;;;;;;8.85;2.30;;;18.40;99.50;;;;;;5005140;28;20193;-68
2021/09/13 07:25:18;;;;;;;5.60;2.50;;;18.40;99.30;;;;;;5008185;28;20206;-69
2021/09/13 07:27:44;;;;;;;8.90;2.60;;;18.50;99.10;;;;;;4979765;28;20291;-69
2021/09/13 07:30:12;;;;;;;13.63;3.22;;;18.60;99.00;;;;;;4989348;28;20212;-72
2021/09/13 07:32:38;;;;;;;10.27;3.13;;;18.60;98.90;;;;;;5007204;28;20543;-70
2021/09/13 07:35:07;;;;;;;12.30;3.35;;;18.60;98.80;;;;;;5006296;28;20196;-69
2021/09/13 07:37:34;;;;;;;9.43;3.38;;;18.60;98.70;;;;;;4989966;28;20659;-69
2021/09/13 07:40:00;;;;;;;13.65;4.05;;;18.70;98.70;;;;;;4970210;28;20236;-69
2021/09/13 07:42:26;;;;;;;8.02;3.00;;;18.70;98.70;;;;;;4982248;28;20188;-70
2021/09/13 07:44:51;;;;;;;9.10;3.58;;;18.80;98.60;;;;;;5006267;28;20271;-69
2021/09/13 07:47:19;;;;;;;18.92;4.10;;;18.90;98.50;;;;;;4995722;28;20193;-69
2021/09/13 07:49:45;;;;;;;15.15;4.18;;;19.00;98.50;;;;;;4973303;28;20200;-70
2021/09/13 07:52:10;;;;;;;12.45;3.60;;;19.00;98.30;;;;;;5005395;28;20197;-71
2021/09/13 07:54:36;;;;;;;7.38;3.30;;;19.10;98.20;;;;;;5006745;28;20204;-69
2021/09/13 07:57:02;;;;;;;7.63;2.85;;;19.10;98.00;;;;;;5006010;28;20234;-70
2021/09/13 07:59:27;;;;;;;15.05;3.80;;;19.10;97.80;;;;;;4979393;28;20205;-70
2021/09/13 08:01:53;;;;;;;13.55;4.03;;;19.10;97.70;;;;;;4980849;28;20200;-72
2021/09/13 08:04:19;;;;;;;15.38;4.28;;;19.20;97.70;;;;;;4999601;28;20196;-70
2021/09/13 08:06:44;;;;;;;8.02;3.42;;;19.20;97.60;;;;;;5007224;28;20304;-70
2021/09/13 08:09:10;;;;;;;9.75;3.20;;;19.30;97.70;;;;;;4969024;28;20221;-70
2021/09/13 08:11:35;;;;;;;13.73;3.33;;;19.30;97.60;;;;;;4972971;28;20745;-70
2021/09/13 08:14:02;;;;;;;5.40;2.53;;;19.40;97.50;;;;;;4971257;28;20185;-71
2021/09/13 08:16:28;;;;;;;7.80;2.70;;;19.40;97.40;;;;;;4988342;28;20185;-69
2021/09/13 08:18:57;;;;;;;9.18;2.67;;;19.50;97.30;;;;;;4995397;28;20246;-70
2021/09/13 08:21:22;;;;;;;9.43;2.55;;;19.60;97.20;;;;;;5006013;28;20223;-70
2021/09/13 08:23:49;;;;;;;4.70;2.20;;;19.60;97.40;;;;;;4983807;28;20201;-69
2021/09/13 08:26:16;;;;;;;8.20;2.50;;;19.60;96.90;;;;;;4973737;28;20189;-68
2021/09/13 08:28:43;;;;;;;9.40;1.90;;;19.70;96.80;;;;;;4971759;28;20209;-68
2021/09/13 08:31:08;;;;;;;6.18;1.77;;;19.80;96.70;;;;;;4970213;28;20249;-70
2021/09/13 08:33:34;;;;;;;5.30;1.73;;;19.80;96.50;;;;;;4972879;28;20221;-71
2021/09/13 08:36:01;;;;;;;6.13;1.70;;;19.90;96.30;;;;;;4995888;28;20196;-70
2021/09/13 08:38:27;;;;;;;5.93;1.65;;;19.90;96.20;;;;;;4978809;28;20181;-70
2021/09/13 08:40:53;;;;;;;3.83;1.58;;;20.10;96.00;;;;;;4971526;28;20241;-71
2021/09/13 08:43:19;;;;;;;8.20;2.05;;;20.10;95.70;;;;;;4986718;28;20192;-69
2021/09/13 08:46:07;;;;;;;4.80;1.65;;;20.20;95.40;;;;;;4971843;28;20263;-68
2021/09/13 08:53:31;;;;;;;4.15;1.80;;;20.50;94.60;;;;;;4991091;28;20185;-69
2021/09/13 08:55:59;;;;;;;3.03;1.80;;;20.70;94.30;;;;;;4990959;28;20218;-72
2021/09/13 08:58:25;;;;;;;5.05;2.05;;;20.90;94.10;;;;;;4971054;28;20771;-69
2021/09/13 09:00:51;;;;;;;5.25;2.00;;;21.00;94.20;;;;;;4976099;28;20269;-70
2021/09/13 09:03:18;;;;;;;6.10;1.52;;;21.20;93.50;;;;;;4970551;28;20555;-70
2021/09/13 09:05:53;;;;;;;8.40;1.60;;;21.30;93.10;;;;;;4969651;28;20233;-71
2021/09/13 09:08:27;;;;;;;8.18;1.55;;;21.50;92.50;;;;;;4968966;28;20197;-71
2021/09/13 09:11:04;;;;;;;6.93;1.60;;;21.60;92.20;;;;;;4969831;28;20221;-70
2021/09/13 09:13:38;;;;;;;4.07;1.35;;;21.70;91.80;;;;;;4974084;28;20209;-69
2021/09/13 09:16:04;;;;;;;10.60;2.25;;;21.70;91.50;;;;;;4990463;28;20547;-70
2021/09/13 09:18:41;;;;;;;5.43;1.95;;;21.80;91.30;;;;;;4999939;28;20766;-72
2021/09/13 09:21:11;;;;;;;6.78;1.70;;;21.80;91.00;;;;;;5005770;28;20226;-73
2021/09/13 09:24:07;;;;;;;4.88;1.90;;;21.80;90.90;;;;;;4981385;28;20185;-71
2021/09/13 09:26:32;;;;;;;5.15;1.98;;;21.90;90.50;;;;;;4982037;28;20916;-72
2021/09/13 09:28:59;;;;;;;10.00;1.80;;;21.90;90.40;;;;;;4976562;28;20211;-70
2021/09/13 09:31:41;;;;;;;5.43;1.77;;;22.00;90.20;;;;;;4967951;28;20218;-71
2021/09/13 09:34:17;;;;;;;7.82;2.38;;;22.10;90.00;;;;;;4962407;28;20195;-71
2021/09/13 09:36:59;;;;;;;6.63;2.30;;;22.10;89.80;;;;;;4984696;28;20275;-71
2021/09/13 09:39:30;;;;;;;5.75;1.88;;;22.20;89.70;;;;;;4970487;28;20289;-73
2021/09/13 09:41:57;;;;;;;6.90;2.10;;;22.10;89.60;;;;;;4969574;28;20205;-71
2021/09/13 09:44:23;;;;;;;4.88;1.67;;;22.20;89.60;;;;;;4972265;28;20595;-71
2021/09/13 09:46:53;;;;;;;8.05;1.98;;;22.20;89.30;;;;;;4981573;28;20195;-71
2021/09/13 09:49:20;;;;;;;8.93;2.25;;;22.10;89.00;;;;;;4972492;28;20205;-70
2021/09/13 09:51:51;;;;;;;6.97;2.10;;;22.10;88.90;;;;;;4982848;28;20235;-71
2021/09/13 09:54:18;;;;;;;6.95;2.38;;;22.10;88.80;;;;;;4972930;28;20221;-70
2021/09/13 09:56:46;;;;;;;5.63;3.60;;;22.00;88.90;;;;;;4968881;28;20193;-73
2021/09/13 09:59:13;;;;;;;5.65;2.05;;;21.90;89.00;;;;;;4985580;28;20190;-71
2021/09/13 10:01:42;;;;;;;6.35;1.90;;;21.80;89.20;;;;;;5005093;28;20220;-70
2021/09/13 10:04:15;;;;;;;5.22;1.77;;;21.70;89.50;;;;;;4978112;28;20209;-72
2021/09/13 10:06:42;;;;;;;4.45;1.58;;;21.70;89.80;;;;;;4987336;28;21006;-72
2021/09/13 10:09:10;;;;;;;5.00;1.60;;;21.60;90.00;;;;;;4993204;28;20194;-72
2021/09/13 10:11:40;;;;;;;5.35;1.75;;;21.40;90.10;;;;;;4971687;28;20213;-72
2021/09/13 10:14:10;;;;;;;4.43;1.38;;;21.30;90.30;;;;;;4988161;28;20197;-71
2021/09/13 10:16:41;;;;;;;4.78;1.70;;;21.20;90.40;;;;;;4991654;28;20194;-72
2021/09/13 10:19:07;;;;;;;5.35;1.73;;;21.10;90.50;;;;;;4972300;28;20189;-71
2021/09/13 10:21:34;;;;;;;5.10;1.63;;;21.00;90.70;;;;;;4973704;28;20275;-71
2021/09/13 10:24:02;;;;;;;6.68;1.70;;;20.90;90.90;;;;;;4974085;28;20253;-73
2021/09/13 10:26:28;;;;;;;9.95;2.20;;;20.80;91.00;;;;;;4970354;28;20185;-70
2021/09/13 10:29:03;;;;;;;7.03;1.77;;;20.70;91.20;;;;;;4972246;28;20186;-72
2021/09/13 10:31:54;;;;;;;7.10;2.00;;;20.70;91.40;;;;;;4975944;28;20212;-73
2021/09/13 10:34:32;;;;;;;4.32;1.52;;;20.60;91.50;;;;;;4987350;28;20302;-70
2021/09/13 10:37:11;;;;;;;7.57;1.90;;;20.60;91.70;;;;;;4976358;28;20216;-73
2021/09/13 10:39:48;;;;;;;8.70;2.10;;;20.60;91.80;;;;;;4984246;28;20551;-72
2021/09/13 10:42:31;;;;;;;7.40;2.60;;;20.60;92.00;;;;;;4970613;28;20280;-69
2021/09/13 10:45:24;;;;;;;6.15;1.98;;;20.60;92.00;;;;;;5001114;28;20194;-71
2021/09/13 10:47:50;;;;;;;6.38;2.50;;;20.60;92.10;;;;;;4974620;28;20226;-71
2021/09/13 10:50:42;;;;;;;6.20;2.58;;;20.60;92.10;;;;;;4978231;28;20303;-71
2021/09/13 10:53:17;;;;;;;8.20;2.60;;;20.60;92.10;;;;;;4982791;28;20214;-70
2021/09/13 10:56:04;;;;;;;5.55;2.55;;;20.70;92.20;;;;;;4992111;28;20252;-70
2021/09/13 10:58:42;;;;;;;5.07;2.10;;;20.60;92.10;;;;;;4966535;28;20189;-70
2021/09/13 11:01:29;;;;;;;5.60;2.05;;;20.70;92.20;;;;;;4984092;28;20196;-70
2021/09/13 11:04:05;;;;;;;3.08;1.52;;;20.70;92.10;;;;;;4995597;28;20258;-74
2021/09/13 11:06:36;;;;;;;5.43;1.80;;;20.70;92.00;;;;;;5001384;28;20238;-73
2021/09/13 11:09:08;;;;;;;6.63;1.70;;;20.70;92.00;;;;;;4986343;28;20614;-72
2021/09/13 11:11:44;;;;;;;7.75;1.95;;;20.70;92.00;;;;;;4967295;28;20297;-72
2021/09/13 11:14:13;;;;;;;5.38;2.10;;;20.70;92.10;;;;;;4969405;28;20189;-76
2021/09/13 11:16:42;;;;;;;9.23;2.30;;;20.70;92.10;;;;;;4969944;28;20181;-72
2021/09/13 11:19:10;;;;;;;13.00;2.17;;;20.70;92.20;;;;;;4986327;28;20625;-73
2021/09/13 11:21:39;;;;;;;6.53;1.98;;;20.70;92.20;;;;;;4967568;28;20198;-75
2021/09/13 11:24:09;;;;;;;4.85;2.13;;;20.70;92.10;;;;;;4970405;28;20191;-73
2021/09/13 11:26:44;;;;;;;5.20;1.95;;;20.80;92.00;;;;;;4970769;28;20200;-71
2021/09/13 11:29:16;;;;;;;3.33;1.67;;;20.80;91.90;;;;;;4967734;28;20192;-72
2021/09/13 11:31:47;;;;;;;3.85;1.90;;;20.80;91.90;;;;;;4967597;28;20289;-73
2021/09/13 11:34:13;;;;;;;7.70;1.92;;;20.80;91.80;;;;;;4968622;28;20181;-73
2021/09/13 11:36:49;;;;;;;5.72;1.80;;;20.90;91.70;;;;;;4967609;28;20184;-72
2021/09/13 11:39:17;;;;;;;2.80;1.50;;;20.90;91.90;;;;;;4977800;28;20183;-70
2021/09/13 11:42:00;;;;;;;2.88;1.40;;;21.00;91.50;;;;;;4983827;28;20220;-72
2021/09/13 11:44:28;;;;;;;2.50;1.30;;;21.10;91.30;;;;;;4970873;28;20193;-71
2021/09/13 11:47:00;;;;;;;4.47;1.20;;;21.20;91.20;;;;;;4981920;28;20987;-70
2021/09/13 11:49:33;;;;;;;3.22;1.20;;;21.30;91.10;;;;;;4975407;28;20367;-68
2021/09/13 11:52:02;;;;;;;5.70;1.42;;;21.40;91.00;;;;;;4968827;28;20209;-68
2021/09/13 11:54:28;;;;;;;2.50;1.20;;;21.70;90.70;;;;;;4967279;28;20186;-71
2021/09/13 11:56:54;;;;;;;4.50;1.10;;;22.10;90.50;;;;;;4970325;28;20190;-70
2021/09/13 11:59:26;;;;;;;4.30;1.15;;;22.60;90.00;;;;;;4969651;28;20212;-70
2021/09/13 12:02:12;;;;;;;4.85;1.15;;;23.00;88.30;;;;;;5004613;28;20208;-68
2021/09/13 12:04:38;;;;;;;2.97;1.38;;;23.30;86.50;;;;;;5003497;28;20184;-68
2021/09/13 12:07:13;;;;;;;6.75;1.40;;;23.70;85.50;;;;;;4967598;28;21030;-69
2021/09/13 12:09:42;;;;;;;3.70;1.25;;;24.10;83.80;;;;;;4971166;28;20190;-69
2021/09/13 12:12:11;;;;;;;5.40;1.20;;;24.40;82.30;;;;;;4972004;28;20264;-69
2021/09/13 12:14:39;;;;;;;2.08;1.10;;;24.70;80.40;;;;;;4970178;28;20205;-69
2021/09/13 12:17:15;;;;;;;8.48;4.05;;;25.10;79.10;;;;;;4981472;28;20200;-71
2021/09/13 12:19:44;;;;;;;4.22;1.77;;;25.40;77.60;;;;;;4985019;28;20281;-69
2021/09/13 12:22:11;;;;;;;5.32;1.55;;;25.70;76.10;;;;;;4996499;28;20273;-67
2021/09/13 12:24:39;;;;;;;4.15;1.50;;;26.00;74.30;;;;;;4989907;28;20193;-70
2021/09/13 12:27:21;;;;;;;3.80;1.20;;;26.20;72.80;;;;;;4990290;28;20256;-69
2021/09/13 12:30:07;;;;;;;4.72;1.83;;;26.20;71.60;;;;;;4973139;28;20208;-68
2021/09/13 12:32:35;;;;;;;5.22;1.10;;;26.30;71.00;;;;;;4999160;28;20402;-68
2021/09/13 12:35:06;;;;;;;4.10;1.75;;;26.50;69.80;;;;;;4970702;28;20647;-69
2021/09/13 12:37:39;;;;;;;5.03;1.30;;;26.60;67.70;;;;;;4978706;28;20198;-68
2021/09/13 12:40:17;;;;;;;3.60;1.10;;;26.60;66.00;;;;;;5003999;28;20189;-68
2021/09/13 12:43:03;;;;;;;10.48;1.25;;;26.60;65.40;;;;;;4971555;28;20186;-68
2021/09/13 12:45:31;;;;;;;5.78;1.00;;;26.40;65.20;;;;;;4964547;28;20328;-68
2021/09/13 12:48:03;;;;;;;4.07;1.00;;;26.20;65.40;;;;;;4967055;28;22381;-68
2021/09/13 12:50:38;;;;;;;5.45;1.10;;;26.00;65.20;;;;;;4969629;28;20225;-67
2021/09/13 12:53:10;;;;;;;3.65;1.10;;;25.90;65.10;;;;;;4967492;28;20196;-68
2021/09/13 12:55:41;;;;;;;4.30;1.42;;;25.80;65.60;;;;;;4976852;28;20623;-68
2021/09/13 12:58:22;;;;;;;5.78;1.63;;;25.80;65.60;;;;;;4969419;28;20289;-73
2021/09/13 13:00:47;;;;;;;5.05;1.20;;;25.90;65.60;;;;;;5003307;28;20653;-70
2021/09/13 13:03:13;;;;;;;4.90;1.20;;;25.90;65.30;;;;;;4973792;28;20223;-70
2021/09/13 13:05:42;;;;;;;4.93;1.20;;;25.90;64.50;;;;;;4995048;28;20329;-72